Nearby METAR Reports

 

KSJC - San Jose, California, USA
Distance from station: NØ 14km
Opdateret: 26/05/2018 03:53
Let regn, Mest skyet
Let regn, Mest skyet
 Vind retning NNV
Vind: NNV 22 km/h
Temperatur: 17°C
Dugpunkt: 11°C
Fugtighed: 68%
Barometer: 1019 hPa
Oversigt: Let regn
Clouds: Mest skyet
Visibility: 16 km
Cloud details: Few Clouds 30 m
Delvist skyet 914 m
Mest skyet 1219 m
2018/05/26 01:53 KSJC 260153Z 33012KT 10SM -RA FEW001 SCT030 BKN040 17/11 A3009 RMK AO2 RAB40 SLP188 P0000 T01670106
KNUQ - Moffett Nas/Mtn, California, USA
Distance from station: N 14km
Opdateret: 26/05/2018 03:56
Overskyet
Overskyet
 Vind retning VNV
Vind: VNV 11 km/h
Temperatur: 17°C
Dugpunkt: 10°C
Fugtighed: 64%
Barometer: 1019 hPa
Clouds: Overskyet
Visibility: 16 km
Cloud details: Mest skyet 1280 m
Overskyet 1676 m
2018/05/26 01:56 KNUQ 260156Z 30006KT 10SM BKN042 OVC055 17/10 A3009 RMK AO2 RAB08E20 SLP190 P0000 T01720100
 
KPAO - Palo Alto, California, USA
Distance from station: NNV 23km
Opdateret: 26/05/2018 01:47
NOT Current
Mest skyet
Mest skyet
 Vind retning VSV
Vind: VSV 28 km/h
Temperatur: 19°C
Dugpunkt: 11°C
Fugtighed: 60%
Barometer: 1019.6 hPa
Clouds: Mest skyet
Visibility: 16 km
Cloud details: Mest skyet 914 m
Mest skyet 3048 m
2018/05/25 23:47 KPAO 252347Z 25015KT 10SM BKN030 BKN100 19/11 A3011
KRHV - San Jose/Reid, California, USA
Distance from station: ØNØ 19km
Opdateret: 26/05/2018 00:47
NOT Current

 
Visibility: 3 km
2018/05/25 22:47 KRHV 252247Z 32010KTKT 10SM BKN032 BKN055 17/10 A3009
 
KOAK - Oakland, California, USA
Distance from station: NNV 50km
Opdateret: 26/05/2018 03:53
Mest skyet
Mest skyet
 Vind retning VNV
Vind: VNV 17 km/h
Temperatur: 14°C
Dugpunkt: 12°C
Fugtighed: 88%
Barometer: 1019.6 hPa
Clouds: Mest skyet
Visibility: 16 km
Cloud details: Few Clouds 366 m
Mest skyet 1463 m
Mest skyet 1829 m
2018/05/26 01:53 KOAK 260153Z 29009KT 10SM FEW012 BKN048 BKN060 14/12 A3011 RMK AO2 SLP196 T01440117
KSQL - San Carlos Airpo, California, USA
Distance from station: NV 34km
Opdateret: 26/05/2018 03:47
Mest skyet
Mest skyet
 Vind retning VNV
Vind: VNV 7 km/h
Temperatur: 16°C
Dugpunkt: 10°C
Fugtighed: 68%
Barometer: 1019 hPa
Clouds: Mest skyet
Visibility: 16 km
Cloud details: Few Clouds 762 m
Mest skyet 1067 m
2018/05/26 01:47 KSQL 260147Z 29004KT 10SM FEW025 BKN035 16/10 A3009
 
KSFO - San Francisco, California, USA
Distance from station: NV 49km
Opdateret: 26/05/2018 03:56
Mest skyet
Mest skyet
 Vind retning VSV
Vind: VSV 17 km/h
Temperatur: 16°C
Dugpunkt: 10°C
Fugtighed: 68%
Barometer: 1019.3 hPa
Clouds: Mest skyet
Visibility: 16 km
Cloud details: Few Clouds 244 m
Delvist skyet 518 m
Mest skyet 1524 m
Mest skyet 4572 m
2018/05/26 01:56 KSFO 260156Z 24009KT 10SM FEW008 SCT017 BKN050 BKN150 16/10 A3010 RMK AO2 SLP192 T01560100
KE16 - San Martin, California, USA
Distance from station: ØSØ 43km
Opdateret: 26/05/2018 03:55
Delvist skyet
Delvist skyet
 Vind retning SV
Vind: SV 17 km/h
Temperatur: 17°C
Dugpunkt: 9°C
Fugtighed: 59%
Barometer: 1019.3 hPa
Clouds: Delvist skyet
Visibility: 16 km
Cloud details: Delvist skyet 1372 m
Delvist skyet 1829 m
2018/05/26 01:55 KE16 260155Z AUTO 22009KT 10SM SCT045 SCT060 17/09 A3010 RMK AO2
 
KWVI - Watsonville, California, USA
Distance from station: SSØ 44km
Opdateret: 26/05/2018 03:53
Mest skyet
Mest skyet
 Vind retning SV
Vind: SV 13 km/h
Temperatur: 14°C
Dugpunkt: 11°C
Fugtighed: 82%
Barometer: 1020 hPa
Clouds: Mest skyet
Visibility: 16 km
Cloud details: Mest skyet 427 m
2018/05/26 01:53 KWVI 260153Z AUTO 23007KT 10SM BKN014 14/11 A3012 RMK AO2 SLP200 T01390111
KHAF - Half Moon Bay, California, USA
Distance from station: VNV 50km
Opdateret: 26/05/2018 04:00
Overskyet
Overskyet
 Vind retning S
Vind: S 11 km/h
Temperatur: 13°C
Dugpunkt: 12°C
Fugtighed: 94%
Barometer: 1020 hPa
Clouds: Overskyet
Visibility: 14 km
Cloud details: Mest skyet 244 m
Overskyet 488 m
2018/05/26 02:00 KHAF 260200Z AUTO 17006KT 9SM BKN008 OVC016 13/12 A3012 RMK AO2
 
KHWD - Hayward, California, USA
Distance from station: N 44km
Opdateret: 26/05/2018 03:54
Mest skyet
Mest skyet
 Vind retning VNV
Vind: VNV 19 km/h
Temperatur: 16°C
Dugpunkt: 11°C
Fugtighed: 72%
Barometer: 1019.3 hPa
Clouds: Mest skyet
Visibility: 16 km
Cloud details: Delvist skyet 488 m
Mest skyet 1676 m
2018/05/26 01:54 KHWD 260154Z 30010KT 10SM SCT016 BKN055 16/11 A3010 RMK AO2 SLP202 T01560106
KLVK - Livermore, California, USA
Distance from station: NNØ 51km
Opdateret: 26/05/2018 03:53
Mest skyet
Mest skyet
 Vind retning V
Vind: V 19 km/h
Temperatur: 16°C
Dugpunkt: 12°C
Fugtighed: 77%
Barometer: 1018.6 hPa
Clouds: Mest skyet
Visibility: 16 km
Cloud details: Few Clouds 1311 m
Mest skyet 1676 m
2018/05/26 01:53 KLVK 260153Z 27010KT 10SM FEW043 BKN055 16/12 A3008 RMK AO2 SLP185 T01560117